This is the latest recevied weather packets stored in our database for station/object KC3QJO. If no packets are shown the sender has not sent any weather packets the latest 10 day(s).
| Time | Temp. | Humidity | Pressure | Rain* | Wind** | Luminosity | Snow |
|---|---|---|---|---|---|---|---|
| 1777962952 | 14.44° C | 58% | 1009.1 hPa | 0 mm | - | 0 W/m² | - |
| 1777960856 | 14.44° C | 56% | 1009.2 hPa | 0 mm | - | 0 W/m² | - |
| 1777960252 | 15° C | 55% | 1009.1 hPa | 0 mm | - | 0 W/m² | - |
| 1777959976 | 15° C | 55% | 1009.1 hPa | 0 mm | - | 0 W/m² | - |
| 1777959652 | 15° C | 55% | 1009.1 hPa | 0 mm | - | 0 W/m² | - |
| 1777959058 | 15° C | 54% | 1009.1 hPa | 0 mm | - | 0 W/m² | - |
| 1777958751 | 15° C | 54% | 1009.1 hPa | 0 mm | - | 0 W/m² | - |
| 1777957851 | 15° C | 53% | 1009.1 hPa | 0 mm | - | 0 W/m² | - |
| 1777954555 | 15.56° C | 50% | 1008.8 hPa | 0 mm | - | 0 W/m² | - |
| 1777953660 | 15.56° C | 50% | 1008.8 hPa | 0 mm | - | 0 W/m² | - |
| 1777952151 | 16.11° C | 49% | 1008.7 hPa | 0 mm | - | 0 W/m² | - |
| 1777950356 | 16.11° C | 48% | 1008.9 hPa | 0 mm | - | 0 W/m² | - |
| 1777950053 | 16.67° C | 48% | 1008.9 hPa | 0 mm | - | 0 W/m² | - |
| 1777949168 | 16.11° C | 48% | 1009 hPa | 0 mm | - | 0 W/m² | - |
| 1777948257 | 16.67° C | 48% | 1009 hPa | 0 mm | - | 0 W/m² | - |
| 1777947372 | 16.67° C | 47% | 1009.1 hPa | 0 mm | - | 0 W/m² | - |
| 1777946455 | 16.67° C | 46% | 1009.2 hPa | 0 mm | - | 0 W/m² | - |
| 1777942554 | 17.78° C | 44% | 1008.8 hPa | 0 mm | - | 0 W/m² | - |
| 1777941957 | 17.78° C | 43% | 1008.6 hPa | 0 mm | - | 0 W/m² | - |
| 1777941054 | 18.33° C | 42% | 1008.5 hPa | 0 mm | - | 0 W/m² | - |
| 1777940450 | 18.33° C | 42% | 1008.4 hPa | 0 mm | - | 0 W/m² | - |
| 1777936557 | 19.44° C | 40% | 1007.8 hPa | 0 mm | - | 28 W/m² | - |
| 1777934150 | 20.56° C | 36% | 1007.7 hPa | 0 mm | - | 169 W/m² | - |
| 1777932354 | 20.56° C | 35% | 1007.7 hPa | 0 mm | - | 258 W/m² | - |
| 1777930850 | 21.11° C | 35% | 1007.9 hPa | 0 mm | - | 332 W/m² | - |
* Rain latest hour (hover to see other rain measurements)
** Current wind speed in m/s (hover to see current wind gust speed)